Time;durP1;ratioP1;P1;durP2;ratioP2;P2;SDS_P1;SDS_P2;PMS_P1;PMS_P2;Temp;Humidity;BMP_temperature;BMP_pressure;BME280_temperature;BME280_humidity;BME280_pressure;Samples;Min_cycle;Max_cycle;Signal;HPM_P1;HPM_P2
2022/08/23 00:01:52;;;;;;;3.42;2.67;;;24.50;66.40;;;;;;5042891;28;20401;-63
2022/08/23 00:04:26;;;;;;;7.70;2.78;;;24.50;66.60;;;;;;5047611;28;20033;-63
2022/08/23 00:06:54;;;;;;;4.88;2.80;;;24.50;66.60;;;;;;5054419;28;20025;-64
2022/08/23 00:09:22;;;;;;;3.88;2.22;;;24.50;66.80;;;;;;5046510;28;20100;-64
2022/08/23 00:11:52;;;;;;;2.70;2.20;;;24.50;67.00;;;;;;5046494;28;20050;-63
2022/08/23 00:14:26;;;;;;;2.97;2.38;;;24.50;67.10;;;;;;5043991;28;20032;-64
2022/08/23 00:16:53;;;;;;;3.45;2.30;;;24.50;67.20;;;;;;5052698;28;20396;-64
2022/08/23 00:19:21;;;;;;;3.83;2.72;;;24.50;67.20;;;;;;5054865;28;20029;-63
2022/08/23 00:21:48;;;;;;;3.80;2.75;;;24.50;67.10;;;;;;5052292;28;20041;-64
2022/08/23 00:24:15;;;;;;;3.72;2.78;;;24.50;67.00;;;;;;5054405;28;20029;-64
2022/08/23 00:27:03;;;;;;;4.88;2.63;;;24.60;66.90;;;;;;5053398;28;20109;-64
2022/08/23 00:29:32;;;;;;;5.07;2.35;;;24.60;67.00;;;;;;5051571;28;20037;-63
2022/08/23 00:31:59;;;;;;;5.13;2.72;;;24.60;66.80;;;;;;5050293;28;20055;-64
2022/08/23 00:34:25;;;;;;;3.28;2.50;;;24.60;66.90;;;;;;5052861;28;20463;-63
2022/08/23 00:36:51;;;;;;;2.95;2.50;;;24.60;66.70;;;;;;5048666;28;20024;-64
2022/08/23 00:39:17;;;;;;;3.17;2.35;;;24.60;66.70;;;;;;5051922;28;20086;-64
2022/08/23 00:41:44;;;;;;;5.32;2.88;;;24.60;66.70;;;;;;5052633;28;20024;-64
2022/08/23 00:50:05;;;;;;;4.18;2.53;;;24.60;66.90;;;;;;5052110;28;20108;-64
2022/08/23 00:52:39;;;;;;;4.13;2.75;;;24.60;66.70;;;;;;5052790;28;20047;-63
2022/08/23 00:55:05;;;;;;;3.70;2.40;;;24.60;66.50;;;;;;5050361;28;20017;-64
2022/08/23 00:57:32;;;;;;;3.85;2.70;;;24.60;65.90;;;;;;5053079;28;20032;-63
2022/08/23 00:59:58;;;;;;;4.22;2.70;;;24.60;65.40;;;;;;5053107;28;20036;-64
2022/08/23 01:02:25;;;;;;;3.47;2.50;;;24.60;65.20;;;;;;5049125;28;20033;-64
2022/08/23 01:04:57;;;;;;;3.97;2.75;;;24.70;65.30;;;;;;5051950;28;20040;-64
2022/08/23 01:07:29;;;;;;;3.45;2.50;;;24.70;65.50;;;;;;5046838;28;20052;-64
2022/08/23 01:10:00;;;;;;;4.70;3.05;;;24.70;65.90;;;;;;5051192;28;20028;-64
2022/08/23 01:12:35;;;;;;;4.95;2.50;;;24.70;65.40;;;;;;5050306;28;20025;-63
2022/08/23 01:15:10;;;;;;;4.43;3.08;;;24.70;65.30;;;;;;5051623;28;20039;-64
2022/08/23 01:17:44;;;;;;;4.45;2.45;;;24.70;65.30;;;;;;5052019;28;20107;-63
2022/08/23 01:20:17;;;;;;;5.10;2.92;;;24.70;65.20;;;;;;5052415;28;20040;-64
2022/08/23 01:22:53;;;;;;;3.55;2.63;;;24.70;65.10;;;;;;5053099;28;20025;-63
2022/08/23 01:25:21;;;;;;;7.88;2.70;;;24.70;65.40;;;;;;5048669;28;20072;-64
2022/08/23 01:27:48;;;;;;;4.38;2.58;;;24.70;65.30;;;;;;5051160;28;20233;-64
2022/08/23 01:30:18;;;;;;;7.45;3.13;;;24.80;65.30;;;;;;5058689;28;20349;-64
2022/08/23 01:32:50;;;;;;;7.47;2.78;;;24.80;65.70;;;;;;5052502;28;20041;-64
2022/08/23 01:35:18;;;;;;;7.72;2.92;;;24.70;65.20;;;;;;5051345;28;20524;-64
2022/08/23 01:37:45;;;;;;;5.18;2.75;;;24.70;65.20;;;;;;5050921;28;20110;-64
2022/08/23 01:40:11;;;;;;;9.98;3.08;;;24.80;65.80;;;;;;5052623;28;20021;-64
2022/08/23 01:42:40;;;;;;;7.13;2.97;;;24.70;65.10;;;;;;5048196;28;20032;-64
2022/08/23 01:45:13;;;;;;;4.75;2.72;;;24.70;64.80;;;;;;5051042;28;20040;-64
2022/08/23 01:47:39;;;;;;;5.22;2.95;;;24.80;64.70;;;;;;5050746;28;20461;-64
2022/08/23 01:50:06;;;;;;;4.70;2.72;;;24.70;64.50;;;;;;5051284;28;20021;-64
2022/08/23 01:52:34;;;;;;;7.97;2.97;;;24.80;64.30;;;;;;5049668;28;20035;-64
2022/08/23 01:55:00;;;;;;;4.38;2.50;;;24.80;64.40;;;;;;5048693;28;20033;-64
2022/08/23 01:57:27;;;;;;;4.97;2.63;;;24.80;64.60;;;;;;5049272;28;20033;-64
2022/08/23 01:59:54;;;;;;;6.63;2.60;;;24.80;64.60;;;;;;5051825;28;20082;-64
2022/08/23 02:02:20;;;;;;;5.75;2.45;;;24.80;64.60;;;;;;5046860;28;20663;-61
2022/08/23 02:04:46;;;;;;;4.20;2.83;;;24.80;64.60;;;;;;5047486;28;20120;-62
2022/08/23 02:07:11;;;;;;;7.32;2.88;;;24.80;64.60;;;;;;5051640;28;20017;-61
2022/08/23 02:09:37;;;;;;;4.75;2.60;;;24.70;64.80;;;;;;5044551;28;20029;-61
2022/08/23 02:12:04;;;;;;;7.25;2.78;;;24.70;64.80;;;;;;5028945;28;20032;-61
2022/08/23 02:14:30;;;;;;;6.22;3.38;;;24.70;64.80;;;;;;5046327;28;20073;-60
2022/08/23 02:16:57;;;;;;;4.13;2.85;;;24.70;64.50;;;;;;5047035;28;20511;-61
2022/08/23 02:19:23;;;;;;;5.28;2.92;;;24.70;64.50;;;;;;5053963;28;20040;-60
2022/08/23 02:21:49;;;;;;;7.72;2.70;;;24.70;64.20;;;;;;5050611;28;20128;-61
2022/08/23 02:24:21;;;;;;;4.22;2.65;;;24.70;64.00;;;;;;5054623;28;20469;-60
2022/08/23 02:26:51;;;;;;;7.97;3.30;;;24.70;63.90;;;;;;5051762;28;20473;-60
2022/08/23 02:29:19;;;;;;;6.75;2.75;;;24.70;63.80;;;;;;5049370;28;20430;-60
2022/08/23 02:31:45;;;;;;;7.30;3.00;;;24.70;63.70;;;;;;5049054;28;20070;-60
2022/08/23 02:34:13;;;;;;;5.13;2.67;;;24.70;63.60;;;;;;5049645;28;20496;-61
2022/08/23 02:36:39;;;;;;;6.07;3.00;;;24.70;63.80;;;;;;5050428;28;20033;-61
2022/08/23 02:39:06;;;;;;;10.40;3.20;;;24.70;63.70;;;;;;5048910;28;20021;-60
2022/08/23 02:41:33;;;;;;;7.65;3.65;;;24.70;63.50;;;;;;5048611;28;20472;-61
2022/08/23 02:43:59;;;;;;;7.90;3.25;;;24.60;63.50;;;;;;5049697;28;20028;-61
2022/08/23 02:46:25;;;;;;;4.70;2.70;;;24.60;63.50;;;;;;5049413;28;20465;-61
2022/08/23 02:48:51;;;;;;;10.77;3.25;;;24.60;63.40;;;;;;5047447;28;20025;-61
2022/08/23 02:51:18;;;;;;;10.38;3.20;;;24.60;63.20;;;;;;5051188;28;20048;-61
2022/08/23 02:53:43;;;;;;;5.88;3.30;;;24.60;63.20;;;;;;5049444;28;20029;-61
2022/08/23 02:56:10;;;;;;;5.30;2.80;;;24.60;63.00;;;;;;5047733;28;20039;-61
2022/08/23 02:58:36;;;;;;;8.10;2.97;;;24.60;63.00;;;;;;5051265;28;20029;-61
2022/08/23 03:01:02;;;;;;;9.38;3.95;;;24.60;63.00;;;;;;5048239;28;20035;-60
2022/08/23 03:03:28;;;;;;;9.98;3.13;;;24.60;62.80;;;;;;5042700;28;20065;-60
2022/08/23 03:05:54;;;;;;;5.93;3.30;;;24.50;62.80;;;;;;5049981;28;20116;-62
2022/08/23 03:08:20;;;;;;;7.53;3.40;;;24.50;62.90;;;;;;5047525;28;20086;-60
2022/08/23 03:10:48;;;;;;;9.43;2.80;;;24.50;63.10;;;;;;5050947;28;20021;-61
2022/08/23 03:13:14;;;;;;;7.00;3.03;;;24.50;63.30;;;;;;5050660;28;20104;-61
2022/08/23 03:15:40;;;;;;;11.25;3.22;;;24.50;63.30;;;;;;5051324;28;20507;-62
2022/08/23 03:18:07;;;;;;;8.40;2.80;;;24.50;63.50;;;;;;5041821;28;20025;-61
2022/08/23 03:20:34;;;;;;;8.00;3.10;;;24.50;63.70;;;;;;5044058;28;20115;-59
2022/08/23 03:23:00;;;;;;;8.70;3.60;;;24.50;63.70;;;;;;5048257;28;20096;-61
2022/08/23 03:25:27;;;;;;;15.32;3.20;;;24.50;63.50;;;;;;5048111;28;20029;-60
2022/08/23 03:27:53;;;;;;;11.23;3.22;;;24.50;63.60;;;;;;5050208;28;20039;-62
2022/08/23 03:30:19;;;;;;;6.40;3.42;;;24.50;63.70;;;;;;5051599;28;20021;-60
2022/08/23 03:32:44;;;;;;;7.75;3.83;;;24.50;63.70;;;;;;5050394;28;20468;-61
2022/08/23 03:35:10;;;;;;;10.23;3.78;;;24.50;63.60;;;;;;5044447;28;20539;-61
2022/08/23 03:37:36;;;;;;;6.13;3.35;;;24.50;63.50;;;;;;5043502;28;20037;-61
2022/08/23 03:40:04;;;;;;;9.35;3.30;;;24.50;63.40;;;;;;5049610;28;20029;-61
2022/08/23 03:42:30;;;;;;;11.43;3.53;;;24.50;63.40;;;;;;5048941;28;20489;-61
2022/08/23 03:44:55;;;;;;;9.93;3.33;;;24.50;63.50;;;;;;5048864;28;20055;-64
2022/08/23 03:47:21;;;;;;;9.32;3.47;;;24.50;63.60;;;;;;5051281;28;20110;-61
2022/08/23 03:49:47;;;;;;;7.32;3.40;;;24.50;63.10;;;;;;5050552;28;20060;-61
2022/08/23 03:52:13;;;;;;;11.52;3.10;;;24.50;63.40;;;;;;5044614;28;20033;-61
2022/08/23 03:54:39;;;;;;;8.80;3.35;;;24.60;63.60;;;;;;5046796;28;20076;-60
2022/08/23 03:57:08;;;;;;;5.90;2.83;;;24.60;63.40;;;;;;5050108;28;20032;-60
2022/08/23 03:59:36;;;;;;;11.23;3.85;;;24.60;63.60;;;;;;5031695;28;20029;-61
2022/08/23 04:02:02;;;;;;;11.93;3.25;;;24.60;63.20;;;;;;5049292;28;20075;-60
2022/08/23 04:04:27;;;;;;;10.52;3.58;;;24.60;62.80;;;;;;5046758;28;20512;-61
2022/08/23 04:06:53;;;;;;;11.05;4.18;;;24.60;63.10;;;;;;5048887;28;20053;-61
2022/08/23 04:09:19;;;;;;;8.13;3.50;;;24.60;62.60;;;;;;5042522;28;20021;-61
2022/08/23 04:11:45;;;;;;;7.93;3.30;;;24.60;62.70;;;;;;5050270;28;20025;-61
2022/08/23 04:14:12;;;;;;;7.38;3.58;;;24.60;62.70;;;;;;5050840;28;20055;-61
2022/08/23 04:16:39;;;;;;;12.52;3.03;;;24.70;62.90;;;;;;5050358;28;20041;-62
2022/08/23 04:19:11;;;;;;;8.10;3.63;;;24.70;62.90;;;;;;5057408;28;20052;-62
2022/08/23 04:21:41;;;;;;;8.90;3.38;;;24.70;62.90;;;;;;5053945;28;20020;-62
2022/08/23 04:24:07;;;;;;;5.85;3.03;;;24.80;63.00;;;;;;5052306;28;20025;-61
2022/08/23 04:26:33;;;;;;;9.63;3.22;;;24.80;62.90;;;;;;5052633;28;20040;-63
2022/08/23 04:28:59;;;;;;;5.57;2.90;;;24.70;62.60;;;;;;5052292;28;20465;-62
2022/08/23 04:31:25;;;;;;;8.32;3.15;;;24.80;62.50;;;;;;5053472;28;20057;-61
2022/08/23 04:33:52;;;;;;;6.63;3.25;;;24.80;62.10;;;;;;5050245;28;20071;-61
2022/08/23 04:36:18;;;;;;;10.25;3.55;;;24.80;62.10;;;;;;5052950;28;20052;-61
2022/08/23 04:38:43;;;;;;;8.88;3.40;;;24.80;62.20;;;;;;5051896;28;20025;-60
2022/08/23 04:43:55;;;;;;;6.88;3.17;;;24.90;61.90;;;;;;5052340;28;20079;-61
2022/08/23 04:46:20;;;;;;;8.10;3.10;;;24.90;62.00;;;;;;5053923;28;20033;-61
2022/08/23 04:48:47;;;;;;;5.95;3.00;;;24.90;61.90;;;;;;5052017;28;20435;-60
2022/08/23 04:51:13;;;;;;;9.00;3.70;;;24.90;61.90;;;;;;5053739;28;20021;-61
2022/08/23 04:53:39;;;;;;;5.68;3.15;;;24.90;61.90;;;;;;5050152;28;20045;-60
2022/08/23 04:56:05;;;;;;;7.75;3.35;;;25.00;62.10;;;;;;5050785;28;20025;-60
2022/08/23 04:58:32;;;;;;;6.82;2.95;;;25.00;62.10;;;;;;5052514;28;20933;-60
2022/08/23 05:01:00;;;;;;;5.55;3.50;;;25.10;62.20;;;;;;5052083;28;20526;-59
2022/08/23 05:03:28;;;;;;;8.65;3.30;;;25.10;62.10;;;;;;5047841;28;20029;-60
2022/08/23 05:05:56;;;;;;;9.13;3.72;;;25.10;61.60;;;;;;5054489;28;20384;-60
2022/08/23 05:08:23;;;;;;;5.97;3.20;;;25.10;61.20;;;;;;5048671;28;20021;-61
2022/08/23 05:10:49;;;;;;;9.27;3.50;;;25.10;61.30;;;;;;5052428;28;20064;-61
2022/08/23 05:13:15;;;;;;;11.98;3.63;;;25.20;61.50;;;;;;5048993;28;20056;-61
2022/08/23 05:15:41;;;;;;;8.10;3.50;;;25.20;61.00;;;;;;5051669;28;20033;-61
2022/08/23 05:18:07;;;;;;;11.13;3.50;;;25.20;60.60;;;;;;5057205;28;20048;-61
2022/08/23 05:20:33;;;;;;;7.95;3.40;;;25.30;60.50;;;;;;5052903;28;20071;-61
2022/08/23 05:23:00;;;;;;;5.65;3.78;;;25.30;60.20;;;;;;5048013;28;20076;-60
2022/08/23 05:25:48;;;;;;;11.13;3.65;;;25.30;60.40;;;;;;5048470;28;20477;-60
2022/08/23 05:28:11;;;;;;;7.70;3.72;;;25.40;59.90;;;;;;5048604;28;20025;-61
2022/08/23 05:30:37;;;;;;;6.18;3.00;;;25.40;60.20;;;;;;5042454;28;20136;-60
2022/08/23 05:33:04;;;;;;;7.50;3.00;;;25.50;60.70;;;;;;5042239;28;20032;-59
2022/08/23 05:35:30;;;;;;;7.45;3.28;;;25.50;60.30;;;;;;5050587;28;20075;-60
2022/08/23 05:37:58;;;;;;;6.15;3.42;;;25.60;59.90;;;;;;5048355;28;20029;-60
2022/08/23 05:40:25;;;;;;;7.25;2.97;;;25.60;59.70;;;;;;5050027;28;20072;-61
2022/08/23 05:42:51;;;;;;;7.70;3.38;;;25.60;59.90;;;;;;5045402;28;20040;-63
2022/08/23 05:45:17;;;;;;;8.93;3.55;;;25.60;59.80;;;;;;5035875;28;20650;-61
2022/08/23 05:47:43;;;;;;;6.95;3.25;;;25.60;59.50;;;;;;5038341;28;20040;-59
2022/08/23 05:50:09;;;;;;;12.52;3.97;;;25.60;59.70;;;;;;5037673;28;20032;-60
2022/08/23 05:52:35;;;;;;;7.97;3.67;;;25.60;59.40;;;;;;5046402;28;20052;-62
2022/08/23 05:55:01;;;;;;;12.80;3.78;;;25.60;59.50;;;;;;5044087;28;20403;-61
2022/08/23 05:57:27;;;;;;;8.65;3.58;;;25.60;59.40;;;;;;5042226;28;20037;-62
2022/08/23 05:59:52;;;;;;;8.93;3.67;;;25.60;59.80;;;;;;5034539;28;20024;-63
2022/08/23 06:02:18;;;;;;;14.02;3.40;;;25.60;59.80;;;;;;5037493;28;20021;-62
2022/08/23 06:04:44;;;;;;;9.15;3.47;;;25.60;59.30;;;;;;5041655;28;20040;-63
2022/08/23 06:07:10;;;;;;;11.95;3.75;;;25.60;59.40;;;;;;5039567;28;20025;-62
2022/08/23 06:09:36;;;;;;;5.75;3.10;;;25.60;59.50;;;;;;5038827;28;20056;-63
2022/08/23 06:12:02;;;;;;;8.63;4.03;;;25.60;59.40;;;;;;5034998;28;20028;-60
2022/08/23 06:14:28;;;;;;;10.95;3.65;;;25.50;59.40;;;;;;5040951;28;20031;-63
2022/08/23 06:16:54;;;;;;;8.60;3.53;;;25.50;59.40;;;;;;5041398;28;20055;-62
2022/08/23 06:19:20;;;;;;;8.57;3.30;;;25.50;59.70;;;;;;5039254;28;20072;-61
2022/08/23 06:21:46;;;;;;;6.95;3.33;;;25.50;60.00;;;;;;5043526;28;20723;-61
2022/08/23 06:24:13;;;;;;;7.15;3.20;;;25.50;60.00;;;;;;5046310;28;20037;-61
2022/08/23 06:26:41;;;;;;;12.32;4.25;;;25.60;60.20;;;;;;5042897;28;20028;-61
2022/08/23 06:29:10;;;;;;;11.70;4.13;;;25.60;60.20;;;;;;5044326;28;20029;-63
2022/08/23 06:31:44;;;;;;;8.23;3.58;;;25.60;59.50;;;;;;5032937;28;20040;-63
2022/08/23 06:34:40;;;;;;;5.45;2.88;;;25.60;59.70;;;;;;5034547;28;20119;-62
2022/08/23 06:37:10;;;;;;;9.80;3.75;;;25.60;59.70;;;;;;5023986;28;20132;-63
2022/08/23 06:39:38;;;;;;;13.13;4.77;;;25.70;59.20;;;;;;5035967;28;20362;-64
2022/08/23 06:42:05;;;;;;;6.85;3.20;;;25.70;59.00;;;;;;5015942;28;20274;-62
2022/08/23 06:44:33;;;;;;;6.22;3.38;;;25.60;59.00;;;;;;5034556;28;20037;-63
2022/08/23 06:46:58;;;;;;;10.07;3.30;;;25.60;59.30;;;;;;5031103;28;20419;-63
2022/08/23 06:49:26;;;;;;;6.53;2.92;;;25.60;59.40;;;;;;5034471;28;20030;-62
2022/08/23 06:51:55;;;;;;;10.73;4.00;;;25.60;59.20;;;;;;5031478;28;20346;-62
2022/08/23 06:54:25;;;;;;;6.88;3.03;;;25.60;58.90;;;;;;5030953;28;20119;-62
2022/08/23 06:56:52;;;;;;;7.00;2.90;;;25.60;58.90;;;;;;5035784;28;20033;-63
2022/08/23 06:59:18;;;;;;;8.13;3.38;;;25.60;59.00;;;;;;5012346;28;20143;-62
2022/08/23 07:02:03;;;;;;;6.75;3.53;;;25.60;58.90;;;;;;5029839;28;20044;-62
2022/08/23 07:04:36;;;;;;;9.13;3.50;;;25.60;58.60;;;;;;5037161;28;20022;-61
2022/08/23 07:07:03;;;;;;;9.20;3.33;;;25.50;58.10;;;;;;5026538;28;20025;-60
2022/08/23 07:09:31;;;;;;;16.92;4.18;;;25.50;58.50;;;;;;5019625;28;20400;-60
2022/08/23 07:11:58;;;;;;;7.05;3.40;;;25.50;58.60;;;;;;5026153;28;20044;-62
2022/08/23 07:14:24;;;;;;;5.80;2.85;;;25.50;59.20;;;;;;5028429;28;20116;-63
2022/08/23 07:16:56;;;;;;;9.23;3.35;;;25.60;59.50;;;;;;5024644;28;20086;-59
2022/08/23 07:19:26;;;;;;;7.13;3.00;;;25.60;59.30;;;;;;5034148;28;20473;-62
2022/08/23 07:21:51;;;;;;;9.73;4.07;;;25.60;59.20;;;;;;5024948;28;20115;-59
2022/08/23 07:24:19;;;;;;;7.40;3.53;;;25.60;58.70;;;;;;5027499;28;20116;-59
2022/08/23 07:26:46;;;;;;;6.00;3.17;;;25.60;58.80;;;;;;5029898;28;21833;-58
2022/08/23 07:29:13;;;;;;;5.20;2.97;;;25.70;59.50;;;;;;5029694;28;20115;-58
2022/08/23 07:31:42;;;;;;;6.90;4.20;;;25.70;59.00;;;;;;5023657;28;20331;-58
2022/08/23 07:34:09;;;;;;;6.95;3.50;;;25.70;58.50;;;;;;5019450;28;20173;-60
2022/08/23 07:36:35;;;;;;;9.57;3.60;;;25.70;58.30;;;;;;5033980;28;20024;-60
2022/08/23 07:39:03;;;;;;;6.68;3.40;;;25.70;57.90;;;;;;5027204;28;20021;-63
2022/08/23 07:41:30;;;;;;;6.43;3.20;;;25.70;58.00;;;;;;5020991;28;20541;-61
2022/08/23 07:44:02;;;;;;;8.88;3.42;;;25.70;58.10;;;;;;5024090;28;20029;-62
2022/08/23 07:46:30;;;;;;;5.95;3.17;;;25.80;58.00;;;;;;5035735;28;20048;-62
2022/08/23 07:48:57;;;;;;;7.00;3.25;;;25.80;58.00;;;;;;5033614;28;20025;-60
2022/08/23 07:51:24;;;;;;;7.78;3.30;;;25.80;57.80;;;;;;5028543;28;20488;-62
2022/08/23 07:53:49;;;;;;;5.25;3.15;;;25.80;57.70;;;;;;5032949;28;20841;-59
2022/08/23 07:56:17;;;;;;;8.30;3.50;;;25.80;58.00;;;;;;5029776;28;20032;-59
2022/08/23 07:58:43;;;;;;;5.32;3.17;;;25.90;57.90;;;;;;5027873;28;20075;-60
2022/08/23 08:01:34;;;;;;;7.68;3.08;;;25.90;57.90;;;;;;5018319;28;20037;-60
2022/08/23 08:04:01;;;;;;;4.47;3.08;;;25.90;58.10;;;;;;5020103;28;20096;-61
2022/08/23 08:06:38;;;;;;;6.45;3.47;;;26.00;58.10;;;;;;5026011;28;20048;-60
2022/08/23 08:09:04;;;;;;;5.85;3.35;;;26.00;58.10;;;;;;5032104;28;20030;-61
2022/08/23 08:11:32;;;;;;;7.70;2.90;;;26.00;57.90;;;;;;5033189;28;20439;-61
2022/08/23 08:13:58;;;;;;;7.75;3.05;;;26.00;57.70;;;;;;5026776;28;20532;-59
2022/08/23 08:16:25;;;;;;;7.03;3.00;;;26.10;58.00;;;;;;5027442;28;20040;-61
2022/08/23 08:18:54;;;;;;;5.35;3.38;;;26.10;57.70;;;;;;5029116;28;20898;-62
2022/08/23 08:21:20;;;;;;;5.10;2.95;;;26.10;57.70;;;;;;5034982;28;20766;-61
2022/08/23 08:23:45;;;;;;;4.32;2.80;;;26.10;58.20;;;;;;5026612;28;20090;-62
2022/08/23 08:26:12;;;;;;;7.05;3.03;;;26.10;57.60;;;;;;5029806;28;20029;-59
2022/08/23 08:28:38;;;;;;;3.90;2.63;;;26.10;57.70;;;;;;5033955;28;20512;-60
2022/08/23 08:31:04;;;;;;;7.60;2.97;;;26.20;57.80;;;;;;5029053;28;21101;-60
2022/08/23 08:33:31;;;;;;;4.15;2.80;;;26.20;57.80;;;;;;5028646;28;20083;-62
2022/08/23 08:35:58;;;;;;;4.25;2.97;;;26.20;57.90;;;;;;5022642;28;20025;-61
2022/08/23 08:38:24;;;;;;;5.45;2.97;;;26.30;58.00;;;;;;5022420;28;20526;-63
2022/08/23 08:41:06;;;;;;;5.63;2.55;;;26.30;58.10;;;;;;5026707;28;20055;-59
2022/08/23 08:43:38;;;;;;;4.72;2.70;;;26.30;57.90;;;;;;5022208;28;20053;-60
2022/08/23 08:46:26;;;;;;;3.05;2.08;;;26.30;57.90;;;;;;5016961;28;20045;-61
2022/08/23 08:48:56;;;;;;;5.22;2.40;;;26.30;58.10;;;;;;5016106;28;20041;-58
2022/08/23 08:51:27;;;;;;;7.55;2.80;;;26.30;58.10;;;;;;5021473;28;20114;-62
2022/08/23 08:53:55;;;;;;;5.82;2.40;;;26.30;58.20;;;;;;5014147;28;20428;-59
2022/08/23 08:56:34;;;;;;;3.42;2.45;;;26.30;58.10;;;;;;5022871;28;20141;-60
2022/08/23 08:59:22;;;;;;;4.28;2.17;;;26.40;58.00;;;;;;5016200;28;20029;-59
2022/08/23 09:01:48;;;;;;;6.40;2.60;;;26.40;57.60;;;;;;5015239;28;20029;-62
2022/08/23 09:04:13;;;;;;;5.47;2.60;;;26.40;57.50;;;;;;5024430;28;20044;-62
2022/08/23 09:06:42;;;;;;;6.60;2.70;;;26.50;57.70;;;;;;5029958;28;20377;-60
2022/08/23 09:09:17;;;;;;;4.80;2.30;;;26.50;57.70;;;;;;5022217;28;20028;-59
2022/08/23 09:12:20;;;;;;;4.07;2.25;;;26.50;57.70;;;;;;5017707;28;20025;-60
2022/08/23 09:15:12;;;;;;;3.70;2.22;;;26.50;57.70;;;;;;5022621;28;20037;-61
2022/08/23 09:17:51;;;;;;;3.58;1.95;;;26.60;57.90;;;;;;5022142;28;20090;-61
2022/08/23 09:20:19;;;;;;;4.22;2.63;;;26.60;58.00;;;;;;5019080;28;20029;-61
2022/08/23 09:22:48;;;;;;;4.50;2.60;;;26.60;58.60;;;;;;5019426;28;20246;-59
2022/08/23 09:25:15;;;;;;;3.45;1.83;;;26.60;58.10;;;;;;5027204;28;20040;-60
2022/08/23 09:27:43;;;;;;;4.32;2.50;;;26.60;58.20;;;;;;5032205;28;20427;-62
2022/08/23 09:30:15;;;;;;;3.03;1.80;;;26.60;58.20;;;;;;5019042;28;20040;-62
2022/08/23 09:32:43;;;;;;;4.78;2.45;;;26.60;58.30;;;;;;5024577;28;20622;-60
2022/08/23 09:35:12;;;;;;;5.65;2.25;;;26.60;58.50;;;;;;5022162;28;20093;-60
2022/08/23 09:37:49;;;;;;;2.88;2.05;;;26.60;58.60;;;;;;5024060;28;20052;-62
2022/08/23 09:40:37;;;;;;;4.35;2.25;;;26.60;58.50;;;;;;5024368;28;20028;-60
2022/08/23 09:43:14;;;;;;;4.53;2.08;;;26.60;58.50;;;;;;5008737;28;20147;-61
2022/08/23 09:46:00;;;;;;;5.63;2.63;;;26.70;58.50;;;;;;5026056;28;20187;-62
2022/08/23 09:48:39;;;;;;;2.30;1.83;;;26.70;58.30;;;;;;5006089;28;20033;-64
2022/08/23 09:51:24;;;;;;;4.78;2.25;;;26.70;58.30;;;;;;5016169;28;20033;-63
2022/08/23 09:54:23;;;;;;;2.30;2.10;;;26.70;57.90;;;;;;5017056;28;20029;-62
2022/08/23 09:56:54;;;;;;;5.30;2.30;;;26.70;57.40;;;;;;5009105;28;20975;-63
2022/08/23 09:59:25;;;;;;;6.63;2.30;;;26.80;57.90;;;;;;5014781;28;20649;-60
2022/08/23 10:01:54;;;;;;;6.18;2.53;;;26.80;57.50;;;;;;5022462;28;20163;-60
2022/08/23 10:04:41;;;;;;;6.45;2.25;;;26.80;57.40;;;;;;5024459;28;20040;-61
2022/08/23 10:07:24;;;;;;;3.92;2.00;;;26.80;57.20;;;;;;5030447;28;20475;-60
2022/08/23 10:09:50;;;;;;;1.92;1.77;;;26.90;57.10;;;;;;5019910;28;20960;-61
2022/08/23 10:12:16;;;;;;;4.32;2.25;;;26.90;57.40;;;;;;5004594;28;20029;-61
2022/08/23 10:14:42;;;;;;;4.10;2.00;;;26.90;57.40;;;;;;5019634;28;20036;-62
2022/08/23 10:17:23;;;;;;;3.90;2.10;;;26.90;57.40;;;;;;5001190;28;20036;-62
2022/08/23 10:19:53;;;;;;;2.42;2.03;;;26.90;57.30;;;;;;5027775;28;20029;-61
2022/08/23 10:22:20;;;;;;;3.55;2.50;;;26.90;57.20;;;;;;5029063;28;20029;-60
2022/08/23 10:24:47;;;;;;;4.57;2.33;;;26.90;56.70;;;;;;5020272;28;20037;-60
2022/08/23 10:30:25;;;;;;;4.68;2.08;;;27.00;55.80;;;;;;5016518;28;20087;-61
2022/08/23 10:33:11;;;;;;;3.03;2.30;;;27.10;56.40;;;;;;5019056;28;20452;-60
2022/08/23 10:35:48;;;;;;;6.32;2.40;;;27.10;56.50;;;;;;5028906;28;20040;-61
2022/08/23 10:38:39;;;;;;;4.43;2.60;;;27.10;56.00;;;;;;5023980;28;20044;-62
2022/08/23 10:41:05;;;;;;;4.20;2.53;;;27.20;54.40;;;;;;5026988;28;20107;-61
2022/08/23 10:44:17;;;;;;;4.25;2.53;;;27.20;54.70;;;;;;5026908;28;20037;-61
2022/08/23 10:46:55;;;;;;;6.82;2.58;;;27.30;53.80;;;;;;5028272;28;20358;-60
2022/08/23 10:49:22;;;;;;;5.72;2.92;;;27.40;54.00;;;;;;5023771;28;20086;-62
2022/08/23 10:51:50;;;;;;;4.70;2.45;;;27.40;54.00;;;;;;5028807;28;20100;-60
2022/08/23 10:54:27;;;;;;;14.27;2.85;;;27.50;53.30;;;;;;5027283;28;20040;-59
2022/08/23 10:56:53;;;;;;;6.35;3.53;;;27.50;53.20;;;;;;5023224;28;20032;-61
2022/08/23 10:59:24;;;;;;;4.10;2.35;;;27.50;53.00;;;;;;5027133;28;20473;-60
2022/08/23 11:02:08;;;;;;;3.10;2.40;;;27.60;53.00;;;;;;5022491;28;20393;-60
2022/08/23 11:05:05;;;;;;;3.90;2.47;;;27.60;52.60;;;;;;5033747;28;20033;-61
2022/08/23 11:07:40;;;;;;;4.50;2.45;;;27.70;52.80;;;;;;5022747;28;20060;-62
2022/08/23 11:10:17;;;;;;;3.28;2.10;;;27.70;53.40;;;;;;5023359;28;20032;-59
2022/08/23 11:12:57;;;;;;;6.55;2.53;;;27.70;53.30;;;;;;5027951;28;20182;-59
2022/08/23 11:15:37;;;;;;;5.82;2.22;;;27.70;53.40;;;;;;5021958;28;20128;-63
2022/08/23 11:18:07;;;;;;;5.03;2.30;;;27.70;53.30;;;;;;5018670;28;20045;-60
2022/08/23 11:20:52;;;;;;;4.13;2.42;;;27.70;53.50;;;;;;5027503;28;20075;-63
2022/08/23 11:23:24;;;;;;;12.85;4.55;;;27.80;51.70;;;;;;5029363;28;20148;-61
2022/08/23 11:25:49;;;;;;;7.68;2.80;;;27.80;52.70;;;;;;5029918;28;20041;-63
2022/08/23 11:28:24;;;;;;;5.40;2.80;;;27.80;53.00;;;;;;5026594;28;20162;-64
2022/08/23 11:31:16;;;;;;;5.15;2.88;;;27.90;53.00;;;;;;5031419;28;20028;-62
2022/08/23 11:33:50;;;;;;;10.25;3.83;;;27.90;52.70;;;;;;5027558;28;20067;-63
2022/08/23 11:36:23;;;;;;;9.23;2.60;;;27.90;53.00;;;;;;5020352;28;20033;-63
2022/08/23 11:38:48;;;;;;;3.92;2.08;;;27.90;53.10;;;;;;5025735;28;20590;-63
2022/08/23 11:41:54;;;;;;;4.18;2.15;;;27.90;53.50;;;;;;5031901;28;20055;-61
2022/08/23 11:44:35;;;;;;;5.18;2.30;;;27.90;52.70;;;;;;5026215;28;20044;-64
2022/08/23 11:47:05;;;;;;;4.43;2.30;;;27.90;53.50;;;;;;5027467;28;20048;-62
2022/08/23 11:49:39;;;;;;;5.47;2.40;;;27.90;53.70;;;;;;5024447;28;20468;-59
2022/08/23 11:52:20;;;;;;;5.25;2.33;;;27.90;53.50;;;;;;5025061;28;20030;-62
2022/08/23 11:55:22;;;;;;;2.45;2.05;;;27.90;53.20;;;;;;5019133;28;20040;-60
2022/08/23 11:58:00;;;;;;;3.03;2.05;;;28.00;53.00;;;;;;5002402;28;20482;-61
2022/08/23 12:00:47;;;;;;;4.78;2.53;;;28.00;53.20;;;;;;5024435;28;20064;-60
2022/08/23 12:03:45;;;;;;;4.45;2.40;;;28.00;53.10;;;;;;5030364;28;20034;-60
2022/08/23 12:06:12;;;;;;;2.60;2.20;;;28.10;53.40;;;;;;5012668;28;20508;-59
2022/08/23 12:08:55;;;;;;;2.75;2.28;;;28.10;53.20;;;;;;5026083;28;20500;-60
2022/08/23 12:11:24;;;;;;;4.00;2.10;;;28.10;52.70;;;;;;5025760;28;20028;-60
2022/08/23 12:13:57;;;;;;;2.92;2.08;;;28.20;52.80;;;;;;5003508;28;20056;-59
2022/08/23 12:16:23;;;;;;;3.53;2.40;;;28.20;52.50;;;;;;5023923;28;20164;-62
2022/08/23 12:18:48;;;;;;;4.43;2.33;;;28.20;52.30;;;;;;5028749;28;20029;-60
2022/08/23 12:21:38;;;;;;;3.55;2.58;;;28.20;52.50;;;;;;5025535;28;20030;-61
2022/08/23 12:24:22;;;;;;;3.72;2.15;;;28.20;52.60;;;;;;5026634;28;20071;-61
2022/08/23 12:26:59;;;;;;;3.78;2.08;;;28.30;52.40;;;;;;5027607;28;20033;-60
2022/08/23 12:29:35;;;;;;;5.43;2.42;;;28.20;52.20;;;;;;5023755;28;20544;-59
2022/08/23 12:32:20;;;;;;;3.00;2.25;;;28.20;52.80;;;;;;5021815;28;20047;-61
2022/08/23 12:34:58;;;;;;;3.05;1.85;;;28.30;52.50;;;;;;5030037;28;20551;-61
2022/08/23 12:37:46;;;;;;;2.97;2.10;;;28.30;52.10;;;;;;5030427;28;20021;-60
2022/08/23 12:40:30;;;;;;;3.97;2.00;;;28.30;52.20;;;;;;5027777;28;21446;-60
2022/08/23 12:43:22;;;;;;;2.95;1.98;;;28.30;52.20;;;;;;5022780;28;20029;-59
2022/08/23 12:45:59;;;;;;;6.50;2.15;;;28.30;51.90;;;;;;5006752;28;20056;-60
2022/08/23 12:48:45;;;;;;;3.47;2.10;;;28.30;51.90;;;;;;5011187;28;20953;-61
2022/08/23 12:51:11;;;;;;;2.65;2.40;;;28.40;51.90;;;;;;5026199;28;20040;-60
2022/08/23 12:53:41;;;;;;;3.70;2.10;;;28.40;52.50;;;;;;5029517;28;20362;-60
2022/08/23 12:56:25;;;;;;;2.55;2.15;;;28.40;52.50;;;;;;5013032;28;20045;-60
2022/08/23 12:58:55;;;;;;;2.42;2.05;;;28.40;52.90;;;;;;5023603;28;20118;-61
2022/08/23 13:01:30;;;;;;;3.15;1.92;;;28.30;52.70;;;;;;5018219;28;20099;-62
2022/08/23 13:04:03;;;;;;;3.83;2.25;;;28.40;52.80;;;;;;5022963;28;21874;-61
2022/08/23 13:06:45;;;;;;;2.40;1.80;;;28.30;52.40;;;;;;5020132;28;20082;-59
2022/08/23 13:09:27;;;;;;;2.15;1.95;;;28.30;52.60;;;;;;5019301;28;20032;-61
2022/08/23 13:11:56;;;;;;;2.00;1.90;;;28.40;52.50;;;;;;5005486;28;20040;-61
2022/08/23 13:14:26;;;;;;;3.17;1.95;;;28.40;52.80;;;;;;5024308;28;20028;-62
2022/08/23 13:16:53;;;;;;;2.83;2.08;;;28.40;52.50;;;;;;5023043;28;20044;-61